createdAt,value
2018-05-12T00:00:52.288Z,66.77
2018-05-12T00:01:52.567Z,66.87
2018-05-12T00:02:52.593Z,67.16
2018-05-12T00:03:52.350Z,67.45
2018-05-12T00:04:52.375Z,67.45
2018-05-12T00:05:52.480Z,67.54
2018-05-12T00:06:52.675Z,67.45
2018-05-12T00:07:52.703Z,66.68
2018-05-12T00:08:52.728Z,67.16
2018-05-12T00:09:52.754Z,66.77
2018-05-12T00:10:52.529Z,67.16
2018-05-12T00:11:52.549Z,67.25
2018-05-12T00:12:52.827Z,67.25
2018-05-12T00:13:52.847Z,67.54
2018-05-12T00:14:52.889Z,66.58
2018-05-12T00:15:52.643Z,66.87
2018-05-12T00:16:52.928Z,66.97
2018-05-12T00:17:52.691Z,67.16
2018-05-12T00:18:52.715Z,66.87
2018-05-12T00:19:53.002Z,66.87
2018-05-12T00:20:53.023Z,66.77
2018-05-12T00:21:53.044Z,66.77
2018-05-12T00:22:52.815Z,66.97
2018-05-12T00:23:53.089Z,66.97
2018-05-12T00:24:53.115Z,66.87
2018-05-12T00:25:53.136Z,67.45
2018-05-12T00:26:53.162Z,67.54
2018-05-12T00:27:53.184Z,68.41
2018-05-12T00:28:53.261Z,68.66
2018-05-12T00:29:53.231Z,68.66
2018-05-12T00:30:53.257Z,68.85
2018-05-12T00:31:53.274Z,68.57
2018-05-12T00:32:53.292Z,68.28
2018-05-12T00:33:53.316Z,68.6
2018-05-12T00:34:53.344Z,68.7
2018-05-12T00:35:53.366Z,69.05
2018-05-12T00:36:53.389Z,68.85
2018-05-12T00:37:53.161Z,69.05
2018-05-12T00:38:53.440Z,69.05
2018-05-12T00:39:53.205Z,68.76
2018-05-12T00:40:53.490Z,68.76
2018-05-12T00:41:53.260Z,69.05
2018-05-12T00:42:53.651Z,69.14
2018-05-12T00:43:53.562Z,69.05
2018-05-12T00:44:53.584Z,69.05
2018-05-12T00:45:53.615Z,68.95
2018-05-12T00:46:53.635Z,68.85
2018-05-12T00:47:53.656Z,68.76
2018-05-12T00:48:53.684Z,68.37
2018-05-12T00:49:53.702Z,68.95
2018-05-12T00:50:53.726Z,69.05
2018-05-12T00:51:53.750Z,69.05
2018-05-12T00:52:53.775Z,69.43
2018-05-12T00:53:53.542Z,69.34
2018-05-12T00:54:53.822Z,69.05
2018-05-12T00:55:53.588Z,68.95
2018-05-12T00:56:53.867Z,69.3
2018-05-12T00:57:53.890Z,69.4
2018-05-12T00:58:53.914Z,69.49
2018-05-12T00:59:53.937Z,69.59
2018-05-12T01:00:53.957Z,69.4
2018-05-12T01:01:53.987Z,69.4
2018-05-12T01:02:53.751Z,69.49
2018-05-12T01:03:54.030Z,69.78
2018-05-12T01:04:54.104Z,69.87
2018-05-12T01:05:54.080Z,70.07
2018-05-12T01:06:53.844Z,69.49
2018-05-12T01:07:54.115Z,69.68
2018-05-12T01:08:54.145Z,69.05
2018-05-12T01:09:53.908Z,69.11
2018-05-12T01:10:54.186Z,69.4
2018-05-12T01:11:54.216Z,69.11
2018-05-12T01:12:54.300Z,69.01
2018-05-12T01:13:54.014Z,69.2
2018-05-12T01:14:54.294Z,69.05
2018-05-12T01:15:54.308Z,68.95
2018-05-12T01:16:54.081Z,68.76
2018-05-12T01:17:54.353Z,68.47
2018-05-12T01:18:54.119Z,68.85
2018-05-12T01:19:54.192Z,69.05
2018-05-12T01:20:54.165Z,68.66
2018-05-12T01:21:54.441Z,68.76
2018-05-12T01:22:54.462Z,68.47
2018-05-12T01:23:54.236Z,68.47
2018-05-12T01:24:55.361Z,68.57
2018-05-12T01:25:54.535Z,68.37
2018-05-12T01:26:54.561Z,68.28
2018-05-12T01:27:54.589Z,68.66
2018-05-12T01:28:54.603Z,68.57
2018-05-12T01:29:54.377Z,68.76
2018-05-12T01:30:54.654Z,68.37
2018-05-12T01:31:54.682Z,68.66
2018-05-12T01:32:54.711Z,68.85
2018-05-12T01:33:54.733Z,68.57
2018-05-12T01:34:54.800Z,68.37
2018-05-12T01:35:54.777Z,68.37
2018-05-12T01:36:54.799Z,68.08
2018-05-12T01:37:54.817Z,68.66
2018-05-12T01:38:54.845Z,68.76
2018-05-12T01:39:54.616Z,68.57
2018-05-12T01:40:54.888Z,68.28
2018-05-12T01:41:54.661Z,68.57
2018-05-12T01:42:54.974Z,68.57
2018-05-12T01:43:54.962Z,68.57
2018-05-12T01:44:54.730Z,68.37
2018-05-12T01:45:55.006Z,68.37
2018-05-12T01:46:55.028Z,68.76
2018-05-12T01:47:55.059Z,68.76
2018-05-12T01:48:55.074Z,69.05
2018-05-12T01:49:55.150Z,69.14
2018-05-12T01:50:55.120Z,69.05
2018-05-12T01:51:54.889Z,69.05
2018-05-12T01:52:55.172Z,69.05
2018-05-12T01:53:54.938Z,68.37
2018-05-12T01:54:54.963Z,68.95
2018-05-12T01:55:55.238Z,69.05
2018-05-12T01:56:55.262Z,69.01
2018-05-12T01:57:55.283Z,68.91
2018-05-12T01:58:55.306Z,69.4
2018-05-12T01:59:55.434Z,69.53
2018-05-12T02:00:55.359Z,69.2
2018-05-12T02:01:55.469Z,69.3
2018-05-12T02:02:55.397Z,69.3
2018-05-12T02:03:55.170Z,69.24
2018-05-12T02:04:55.500Z,69.05
2018-05-12T02:05:55.550Z,68.57
2018-05-12T02:06:55.494Z,68.85
2018-05-12T02:07:55.514Z,68.47
2018-05-12T02:08:55.286Z,68.47
2018-05-12T02:09:55.309Z,68.47
2018-05-12T02:10:55.586Z,68.63
2018-05-12T02:11:55.352Z,68.63
2018-05-12T02:12:55.373Z,68.82
2018-05-12T02:13:55.396Z,68.82
2018-05-12T02:14:55.672Z,68.15
2018-05-12T02:15:55.452Z,68.63
2018-05-12T02:16:55.722Z,68.66
2018-05-12T02:17:55.747Z,68.57
2018-05-12T02:18:55.769Z,68.47
2018-05-12T02:19:55.840Z,68.28
2018-05-12T02:20:55.820Z,68.28
2018-05-12T02:21:55.841Z,67.51
2018-05-12T02:22:55.863Z,67.9
2018-05-12T02:23:55.632Z,67.7
2018-05-12T02:24:55.906Z,67.7
2018-05-12T02:25:55.930Z,67.9
2018-05-12T02:26:55.954Z,67.7
2018-05-12T02:27:55.977Z,67.13
2018-05-12T02:28:55.999Z,67.41
2018-05-12T02:29:56.027Z,67.32
2018-05-12T02:30:55.795Z,67.61
2018-05-12T02:31:56.071Z,67.13
2018-05-12T02:32:56.093Z,67.32
2018-05-12T02:33:56.120Z,67.99
2018-05-12T02:34:55.887Z,67.61
2018-05-12T02:35:56.174Z,67.7
2018-05-12T02:36:56.186Z,68.47
2018-05-12T02:37:56.209Z,68.28
2018-05-12T02:38:56.230Z,68.28
2018-05-12T02:39:56.255Z,68.47
2018-05-12T02:40:56.271Z,68.63
2018-05-12T02:41:56.305Z,68.63
2018-05-12T02:42:56.065Z,68.37
2018-05-12T02:43:56.358Z,68.08
2018-05-12T02:44:56.372Z,68.18
2018-05-12T02:45:56.394Z,68.28
2018-05-12T02:46:56.174Z,68.37
2018-05-12T02:47:56.436Z,68.47
2018-05-12T02:48:56.207Z,68.15
2018-05-12T02:49:56.488Z,68.18
2018-05-12T02:50:56.506Z,68.53
2018-05-12T02:51:56.529Z,68.73
2018-05-12T02:52:56.551Z,68.15
2018-05-12T02:53:56.574Z,68.66
2018-05-12T02:54:56.597Z,68.63
2018-05-12T02:55:56.618Z,68.24
2018-05-12T02:56:56.705Z,67.96
2018-05-12T02:57:56.666Z,67.96
2018-05-12T02:58:56.717Z,68.05
2018-05-12T02:59:56.711Z,68.37
2018-05-12T03:00:56.736Z,68.08
2018-05-12T03:01:56.755Z,68.53
2018-05-12T03:02:56.788Z,68.44
2018-05-12T03:03:56.807Z,68.34
2018-05-12T03:04:56.826Z,68.82
2018-05-12T03:05:56.852Z,68.24
2018-05-12T03:06:56.894Z,68.24
2018-05-12T03:07:56.650Z,68.66
2018-05-12T03:08:56.921Z,68.34
2018-05-12T03:09:56.940Z,68.34
2018-05-12T03:10:56.965Z,68.37
2018-05-12T03:11:56.736Z,68.44
2018-05-12T03:12:57.027Z,68.18
2018-05-12T03:13:57.038Z,67.76
2018-05-12T03:14:57.056Z,67.7
2018-05-12T03:15:57.081Z,68.08
2018-05-12T03:16:57.102Z,68.28
2018-05-12T03:17:56.891Z,68.05
2018-05-12T03:18:57.147Z,68.08
2018-05-12T03:19:56.919Z,68.05
2018-05-12T03:20:57.204Z,68.24
2018-05-12T03:21:56.961Z,68.44
2018-05-12T03:22:57.243Z,68.24
2018-05-12T03:23:57.262Z,68.66
2018-05-12T03:24:57.291Z,68.44
2018-05-12T03:25:57.308Z,68.66
2018-05-12T03:26:57.328Z,68.24
2018-05-12T03:27:57.352Z,67.96
2018-05-12T03:28:57.377Z,68.63
2018-05-12T03:29:57.412Z,68.28
2018-05-12T03:30:57.425Z,68.05
2018-05-12T03:31:57.446Z,68.05
2018-05-12T03:32:57.472Z,68.28
2018-05-12T03:33:57.488Z,67.96
2018-05-12T03:34:57.510Z,68.34
2018-05-12T03:35:57.540Z,68.53
2018-05-12T03:36:57.558Z,68.44
2018-05-12T03:37:57.579Z,68.44
2018-05-12T03:38:57.347Z,68.05
2018-05-12T03:39:57.630Z,67.99
2018-05-12T03:40:57.651Z,68.47
2018-05-12T03:41:57.672Z,68.18
2018-05-12T03:42:57.436Z,67.7
2018-05-12T03:43:57.709Z,67.7
2018-05-12T03:44:57.735Z,67.8
2018-05-12T03:45:57.753Z,67.61
2018-05-12T03:46:57.779Z,68.28
2018-05-12T03:47:57.551Z,68.08
2018-05-12T03:48:57.579Z,68.28
2018-05-12T03:49:57.853Z,67.51
2018-05-12T03:50:57.871Z,67.7
2018-05-12T03:51:57.896Z,67.9
2018-05-12T03:52:57.666Z,67.7
2018-05-12T03:53:57.939Z,67.45
2018-05-12T03:54:57.975Z,67.51
2018-05-12T03:55:58.007Z,67.13
2018-05-12T03:56:57.763Z,67.07
2018-05-12T03:57:58.039Z,67.07
2018-05-12T03:58:58.068Z,66.97
2018-05-12T03:59:57.867Z,66.87
2018-05-12T04:00:58.102Z,66.97
2018-05-12T04:01:58.121Z,66.87
2018-05-12T04:02:58.150Z,66.2
2018-05-12T04:03:58.174Z,66.36
2018-05-12T04:04:57.940Z,66.58
2018-05-12T04:05:58.217Z,66.26
2018-05-12T04:06:58.242Z,66.84
2018-05-12T04:07:58.261Z,66.74
2018-05-12T04:08:58.283Z,66.84
2018-05-12T04:09:58.321Z,66.74
2018-05-12T04:10:58.338Z,66.93
2018-05-12T04:11:58.362Z,67.13
2018-05-12T04:12:58.130Z,67.13
2018-05-12T04:13:58.158Z,66.93
2018-05-12T04:14:58.435Z,66.74
2018-05-12T04:15:58.456Z,66.64
2018-05-12T04:16:58.479Z,66.93
2018-05-12T04:17:58.503Z,66.74
2018-05-12T04:18:58.275Z,66.74
2018-05-12T04:19:58.552Z,67.03
2018-05-12T04:20:58.397Z,66.55
2018-05-12T04:21:58.341Z,66.93
2018-05-12T04:22:58.365Z,66.36
2018-05-12T04:23:58.643Z,66.58
2018-05-12T04:24:58.673Z,66.36
2018-05-12T04:25:58.690Z,66.64
2018-05-12T04:26:58.713Z,66.49
2018-05-12T04:27:58.725Z,66.2
2018-05-12T04:28:58.504Z,66.58
2018-05-12T04:29:58.782Z,66.1
2018-05-12T04:30:58.808Z,66
2018-05-12T04:31:58.577Z,66.1
2018-05-12T04:32:58.606Z,66.3
2018-05-12T04:33:58.876Z,66
2018-05-12T04:34:58.909Z,65.33
2018-05-12T04:35:58.925Z,65.53
2018-05-12T04:36:58.689Z,65.72
2018-05-12T04:37:58.712Z,65.62
2018-05-12T04:38:58.990Z,65.62
2018-05-12T04:39:59.016Z,65.33
2018-05-12T04:40:59.038Z,64.95
2018-05-12T04:41:59.066Z,64.76
2018-05-12T04:42:59.090Z,65.43
2018-05-12T04:43:58.876Z,65.62
2018-05-12T04:44:59.137Z,65.23
2018-05-12T04:45:59.183Z,65.53
2018-05-12T04:46:59.185Z,66.1
2018-05-12T04:47:59.203Z,66
2018-05-12T04:48:59.225Z,66
2018-05-12T04:49:59.253Z,65.53
2018-05-12T04:50:59.296Z,66.39
2018-05-12T04:51:59.298Z,66.49
2018-05-12T04:52:59.405Z,65.91
2018-05-12T04:53:59.350Z,66.1
2018-05-12T04:54:59.374Z,66.39
2018-05-12T04:55:59.394Z,66
2018-05-12T04:56:59.430Z,66.39
2018-05-12T04:57:59.442Z,66.39
2018-05-12T04:58:59.467Z,66.49
2018-05-12T04:59:59.499Z,66.74
2018-05-12T05:00:59.513Z,66.64
2018-05-12T05:01:59.535Z,66.46
2018-05-12T05:02:59.310Z,66.64
2018-05-12T05:03:59.589Z,66.74
2018-05-12T05:04:59.609Z,66.64
2018-05-12T05:05:59.630Z,66.49
2018-05-12T05:06:59.403Z,66.84
2018-05-12T05:07:59.677Z,67.32
2018-05-12T05:08:59.453Z,67.7
2018-05-12T05:09:59.476Z,67.32
2018-05-12T05:10:59.756Z,67.22
2018-05-12T05:11:59.879Z,66.93
2018-05-12T05:12:59.801Z,66.68
2018-05-12T05:13:59.824Z,66
2018-05-12T05:14:59.851Z,66.1
2018-05-12T05:15:59.614Z,65.72
2018-05-12T05:16:59.900Z,65.66
2018-05-12T05:17:59.916Z,65.43
2018-05-12T05:18:59.687Z,65.81
2018-05-12T05:19:59.959Z,66.39
2018-05-12T05:20:59.730Z,66.3
2018-05-12T05:21:59.766Z,66.1
2018-05-12T05:23:00.041Z,66.2
2018-05-12T05:24:00.071Z,66.1
2018-05-12T05:25:00.095Z,66.3
2018-05-12T05:25:59.857Z,66.3
2018-05-12T05:27:00.137Z,66.1
2018-05-12T05:28:00.161Z,66.1
2018-05-12T05:29:00.188Z,66.1
2018-05-12T05:30:00.219Z,65.72
2018-05-12T05:31:00.233Z,65.62
2018-05-12T05:32:00.245Z,66.1
2018-05-12T05:33:00.267Z,66
2018-05-12T05:34:00.289Z,65.72
2018-05-12T05:35:00.315Z,65.62
2018-05-12T05:36:00.338Z,65.91
2018-05-12T05:37:00.382Z,65.37
2018-05-12T05:38:00.397Z,65.46
2018-05-12T05:39:00.168Z,65.27
2018-05-12T05:40:00.187Z,65.84
2018-05-12T05:41:00.215Z,65.56
2018-05-12T05:42:00.233Z,65.08
2018-05-12T05:43:00.510Z,65.27
2018-05-12T05:44:00.283Z,65.17
2018-05-12T05:45:00.557Z,65.37
2018-05-12T05:46:00.591Z,64.89
2018-05-12T05:47:00.614Z,65.46
2018-05-12T05:48:00.637Z,65.37
2018-05-12T05:49:00.662Z,65.37
2018-05-12T05:50:00.688Z,65.62
2018-05-12T05:51:00.715Z,66.49
2018-05-12T05:52:00.738Z,66.49
2018-05-12T05:53:00.762Z,66.3
2018-05-12T05:54:00.535Z,66.97
2018-05-12T05:55:00.554Z,67.16
2018-05-12T05:56:00.840Z,66.58
2018-05-12T05:57:00.601Z,67.45
2018-05-12T05:58:00.883Z,67.35
2018-05-12T05:59:00.905Z,67.45
2018-05-12T06:00:00.929Z,66.58
2018-05-12T06:01:00.708Z,66.77
2018-05-12T06:02:00.976Z,66.87
2018-05-12T06:03:00.747Z,67.07
2018-05-12T06:04:01.023Z,66.3
2018-05-12T06:05:00.792Z,66.33
2018-05-12T06:06:01.072Z,66.33
2018-05-12T06:07:01.121Z,66.14
2018-05-12T06:08:01.316Z,65.66
2018-05-12T06:09:01.140Z,65.66
2018-05-12T06:10:00.917Z,65.17
2018-05-12T06:11:01.192Z,65.66
2018-05-12T06:12:01.214Z,65.08
2018-05-12T06:13:01.248Z,65.11
2018-05-12T06:14:01.260Z,64.34
2018-05-12T06:15:01.286Z,65.5
2018-05-12T06:16:01.056Z,65.27
2018-05-12T06:17:01.333Z,64.82
2018-05-12T06:18:01.208Z,64.92
2018-05-12T06:19:01.382Z,64.22
2018-05-12T06:20:01.421Z,64.25
2018-05-12T06:21:01.430Z,63.76
2018-05-12T06:22:01.454Z,63.67
2018-05-12T06:23:01.481Z,64.31
2018-05-12T06:24:01.503Z,64.6
2018-05-12T06:25:01.527Z,65.37
2018-05-12T06:26:01.551Z,65.23
2018-05-12T06:27:01.578Z,65.66
2018-05-12T06:28:01.358Z,65.08
2018-05-12T06:29:01.621Z,64.6
2018-05-12T06:30:01.645Z,65.66
2018-05-12T06:31:01.672Z,65.75
2018-05-12T06:32:01.693Z,65.17
2018-05-12T06:33:01.718Z,64.89
2018-05-12T06:34:01.744Z,64.98
2018-05-12T06:35:01.776Z,64.4
2018-05-12T06:36:01.795Z,63.92
2018-05-12T06:37:01.816Z,63.95
2018-05-12T06:38:01.839Z,63.54
2018-05-12T06:39:01.862Z,63.38
2018-05-12T06:40:01.897Z,63.25
2018-05-12T06:41:01.655Z,63.15
2018-05-12T06:42:01.931Z,63.28
2018-05-12T06:43:01.959Z,63.15
2018-05-12T06:44:01.978Z,62.61
2018-05-12T06:45:02.107Z,62.41
2018-05-12T06:46:02.019Z,61.68
2018-05-12T06:47:02.044Z,60.81
2018-05-12T06:48:01.815Z,60.33
2018-05-12T06:49:02.095Z,60.52
2018-05-12T06:50:02.117Z,60.04
2018-05-12T06:51:02.145Z,59.75
2018-05-12T06:52:02.163Z,59.66
2018-05-12T06:53:02.191Z,60.14
2018-05-12T06:54:02.214Z,59.85
2018-05-12T06:55:02.245Z,59.66
2018-05-12T06:56:02.281Z,59.37
2018-05-12T06:57:02.311Z,59.3
2018-05-12T06:58:02.324Z,59.3
2018-05-12T06:59:02.089Z,59.4
2018-05-12T07:00:02.376Z,59.4
2018-05-12T07:01:02.189Z,59.3
2018-05-12T07:02:02.419Z,58.75
2018-05-12T07:03:02.445Z,58.56
2018-05-12T07:04:02.471Z,58.27
2018-05-12T07:05:02.240Z,57.6
2018-05-12T07:06:02.519Z,57.53
2018-05-12T07:07:02.542Z,56.66
2018-05-12T07:08:02.569Z,56.47
2018-05-12T07:09:02.594Z,56.09
2018-05-12T07:10:02.617Z,56.47
2018-05-12T07:11:02.654Z,55.79
2018-05-12T07:12:02.667Z,55.6
2018-05-12T07:13:02.692Z,55.63
2018-05-12T07:14:02.728Z,55.51
2018-05-12T07:15:02.747Z,55.24
2018-05-12T07:16:02.822Z,55.24
2018-05-12T07:17:02.535Z,55.34
2018-05-12T07:18:02.812Z,55.44
2018-05-12T07:19:02.846Z,55.44
2018-05-12T07:20:02.866Z,55.73
2018-05-12T07:21:02.943Z,55.34
2018-05-12T07:22:02.931Z,54.76
2018-05-12T07:23:02.936Z,54.57
2018-05-12T07:24:02.968Z,54.18
2018-05-12T07:25:02.985Z,53.53
2018-05-12T07:26:03.013Z,53.63
2018-05-12T07:27:03.050Z,53.44
2018-05-12T07:28:03.065Z,53.05
2018-05-12T07:29:02.837Z,52.67
2018-05-12T07:30:02.866Z,52.28
2018-05-12T07:31:02.884Z,52.21
2018-05-12T07:32:03.175Z,51.73
2018-05-12T07:33:03.192Z,51.15
2018-05-12T07:34:03.219Z,50.96
2018-05-12T07:35:03.250Z,51.25
2018-05-12T07:36:03.320Z,51.34
2018-05-12T07:37:03.042Z,51.44
2018-05-12T07:38:03.329Z,51.82
2018-05-12T07:39:03.408Z,51.05
2018-05-12T07:40:03.389Z,50.96
2018-05-12T07:41:03.444Z,50.4
2018-05-12T07:42:03.168Z,50.4
2018-05-12T07:43:03.449Z,50.31
2018-05-12T07:44:03.477Z,50.4
2018-05-12T07:45:03.500Z,50.11
2018-05-12T07:46:03.523Z,50.11
2018-05-12T07:47:03.557Z,50.11
2018-05-12T07:48:03.322Z,49.63
2018-05-12T07:49:03.605Z,49.15
2018-05-12T07:50:03.630Z,48.95
2018-05-12T07:51:03.659Z,48.88
2018-05-12T07:52:03.430Z,49.17
2018-05-12T07:53:03.723Z,49.17
2018-05-12T07:54:03.736Z,49.17
2018-05-12T07:55:03.522Z,48.88
2018-05-12T07:56:03.880Z,49.17
2018-05-12T07:57:03.985Z,49.37
2018-05-12T07:58:03.837Z,48.79
2018-05-12T07:59:03.613Z,48.69
2018-05-12T08:00:03.896Z,48.69
2018-05-12T08:01:03.663Z,48.49
2018-05-12T08:02:03.943Z,48.3
2018-05-12T08:03:03.722Z,48.52
2018-05-12T08:04:04.007Z,48.71
2018-05-12T08:05:03.772Z,48.13
2018-05-12T08:06:03.797Z,48.49
2018-05-12T08:07:04.081Z,48.79
2018-05-12T08:08:04.103Z,48.79
2018-05-12T08:09:04.132Z,48.49
2018-05-12T08:10:03.901Z,48.03
2018-05-12T08:11:04.233Z,47.65
2018-05-12T08:12:04.210Z,47.94
2018-05-12T08:13:04.236Z,47.74
2018-05-12T08:14:04.278Z,47.16
2018-05-12T08:15:04.295Z,46.88
2018-05-12T08:16:04.313Z,46.8
2018-05-12T08:17:04.341Z,47
2018-05-12T08:18:04.110Z,46.22
2018-05-12T08:19:04.389Z,46.15
2018-05-12T08:20:04.162Z,45.95
2018-05-12T08:21:04.189Z,46.12
2018-05-12T08:22:04.215Z,46.03
2018-05-12T08:23:04.241Z,45.86
2018-05-12T08:24:04.268Z,46.15
2018-05-12T08:25:04.571Z,46.05
2018-05-12T08:26:04.720Z,46.05
2018-05-12T08:27:04.611Z,45.57
2018-05-12T08:28:04.634Z,45.47
2018-05-12T08:29:04.665Z,45.76
2018-05-12T08:30:04.686Z,45.83
2018-05-12T08:31:04.766Z,45.83
2018-05-12T08:32:04.487Z,45.86
2018-05-12T08:33:04.778Z,45.08
2018-05-12T08:34:04.539Z,44.79
2018-05-12T08:35:04.825Z,44.21
2018-05-12T08:36:04.945Z,44.31
2018-05-12T08:37:04.626Z,44.04
2018-05-12T08:38:04.649Z,43.34
2018-05-12T08:39:04.928Z,43.55
2018-05-12T08:40:04.967Z,43.65
2018-05-12T08:41:04.727Z,43.27
2018-05-12T08:42:05.000Z,42.2
2018-05-12T08:43:04.782Z,42.41
2018-05-12T08:44:05.064Z,42.41
2018-05-12T08:45:04.837Z,42.41
2018-05-12T08:46:04.913Z,42.61
2018-05-12T08:47:05.147Z,42.03
2018-05-12T08:48:05.173Z,41.45
2018-05-12T08:49:05.200Z,41.45
2018-05-12T08:50:04.973Z,41.35
2018-05-12T08:51:05.251Z,40.11
2018-05-12T08:52:05.279Z,39.92
2018-05-12T08:53:05.307Z,39.62
2018-05-12T08:54:05.335Z,39.34
2018-05-12T08:55:05.112Z,38.68
2018-05-12T08:56:05.412Z,38.87
2018-05-12T08:57:05.420Z,38.58
2018-05-12T08:58:05.196Z,38.48
2018-05-12T08:59:05.471Z,38.09
2018-05-12T09:00:05.501Z,37.71
2018-05-12T09:01:05.320Z,37.51
2018-05-12T09:02:05.550Z,37.79
2018-05-12T09:03:05.576Z,37.79
2018-05-12T09:04:05.601Z,37.71
2018-05-12T09:05:05.379Z,37.32
2018-05-12T09:06:05.664Z,36.76
2018-05-12T09:07:05.494Z,37.13
2018-05-12T09:08:05.716Z,37.13
2018-05-12T09:09:05.495Z,37.15
2018-05-12T09:10:05.773Z,37.34
2018-05-12T09:11:05.547Z,37.05
2018-05-12T09:12:05.830Z,36.85
2018-05-12T09:13:05.862Z,37.15
2018-05-12T09:14:05.631Z,36.93
2018-05-12T09:15:05.930Z,37.03
2018-05-12T09:16:05.993Z,36.66
2018-05-12T09:17:05.974Z,36.76
2018-05-12T09:18:05.997Z,35.98
2018-05-12T09:19:06.023Z,36.46
2018-05-12T09:20:06.056Z,36
2018-05-12T09:21:06.081Z,35.51
2018-05-12T09:22:05.856Z,35.53
2018-05-12T09:23:06.136Z,35.05
2018-05-12T09:24:06.165Z,34.75
2018-05-12T09:25:05.943Z,34.66
2018-05-12T09:26:06.218Z,34.46
2018-05-12T09:27:06.256Z,33.78
2018-05-12T09:28:06.274Z,33.98
2018-05-12T09:29:06.309Z,34.27
2018-05-12T09:30:06.336Z,34.56
2018-05-12T09:31:06.418Z,34.83
2018-05-12T09:32:06.137Z,35.03
2018-05-12T09:33:06.165Z,34.83
2018-05-12T09:34:06.450Z,34.95
2018-05-12T09:35:06.476Z,35.24
2018-05-12T09:36:06.506Z,35.14
2018-05-12T09:37:06.623Z,34.66
2018-05-12T09:38:06.568Z,34.54
2018-05-12T09:39:06.594Z,34.44
2018-05-12T09:40:06.363Z,34.93
2018-05-12T09:41:06.392Z,34.74
2018-05-12T09:42:06.679Z,34.16
2018-05-12T09:43:06.714Z,33.49
2018-05-12T09:44:06.733Z,32.64
2018-05-12T09:45:06.815Z,31.97
2018-05-12T09:46:06.848Z,31.38
2018-05-12T09:47:06.822Z,30.25
2018-05-12T09:48:06.595Z,30.44
2018-05-12T09:49:06.633Z,30.26
2018-05-12T09:50:06.907Z,30.55
2018-05-12T09:51:06.684Z,30.65
2018-05-12T09:52:06.980Z,30.54
2018-05-12T09:53:07.001Z,30.74
2018-05-12T09:54:06.772Z,30.64
2018-05-12T09:55:07.054Z,30.83
2018-05-12T09:56:06.929Z,30.93
2018-05-12T09:57:07.137Z,31.61
2018-05-12T09:58:06.888Z,31.21
2018-05-12T09:59:07.196Z,31.01
2018-05-12T10:00:07.200Z,30.54
2018-05-12T10:01:07.280Z,30.15
2018-05-12T10:02:07.282Z,30.46
2018-05-12T10:03:07.037Z,29.3
2018-05-12T10:04:07.318Z,28.93
2018-05-12T10:05:07.087Z,28.55
2018-05-12T10:06:07.376Z,28.34
2018-05-12T10:07:07.414Z,28.07
2018-05-12T10:08:07.487Z,27.78
2018-05-12T10:09:07.469Z,27.78
2018-05-12T10:10:07.499Z,27.79
2018-05-12T10:11:07.680Z,27.59
2018-05-12T10:12:07.310Z,27.58
2018-05-12T10:13:07.631Z,27.58
2018-05-12T10:14:07.646Z,27.69
2018-05-12T10:15:07.668Z,27.59
2018-05-12T10:16:07.490Z,27.2
2018-05-12T10:17:07.722Z,26.53
2018-05-12T10:18:07.493Z,25.76
2018-05-12T10:19:07.528Z,25.39
2018-05-12T10:20:07.560Z,25
2018-05-12T10:21:07.895Z,24.71
2018-05-12T10:22:07.892Z,24.14
2018-05-12T10:23:07.903Z,23.76
2018-05-12T10:24:07.938Z,23.28
2018-05-12T10:25:07.965Z,23.38
2018-05-12T10:26:07.786Z,23.68
2018-05-12T10:27:08.026Z,23.28
2018-05-12T10:28:07.805Z,22.6
2018-05-12T10:29:08.092Z,21.55
2018-05-12T10:30:08.126Z,21.64
2018-05-12T10:31:08.201Z,21.45
2018-05-12T10:32:07.954Z,21.25
2018-05-12T10:33:08.223Z,20.57
2018-05-12T10:34:08.263Z,20.67
2018-05-12T10:35:08.305Z,20.97
2018-05-12T10:36:08.322Z,20.67
2018-05-12T10:37:08.354Z,20.78
2018-05-12T10:38:08.397Z,20.68
2018-05-12T10:39:08.165Z,20.5
2018-05-12T10:40:08.458Z,20.1
2018-05-12T10:41:08.485Z,19.92
2018-05-12T10:42:08.519Z,20.22
2018-05-12T10:43:08.559Z,20.03
2018-05-12T10:44:08.586Z,19.54
2018-05-12T10:45:08.625Z,19.27
2018-05-12T10:46:08.706Z,18.87
2018-05-12T10:47:08.686Z,18.98
2018-05-12T10:48:08.463Z,18.39
2018-05-12T10:49:08.496Z,17.71
2018-05-12T10:50:08.529Z,17.71
2018-05-12T10:51:08.817Z,17.22
2018-05-12T10:52:08.854Z,17.33
2018-05-12T10:53:08.877Z,17.42
2018-05-12T10:54:08.674Z,17.02
2018-05-12T10:55:08.954Z,16.53
2018-05-12T10:56:09.010Z,16.35
2018-05-12T10:57:09.036Z,16.16
2018-05-12T10:58:08.808Z,15.37
2018-05-12T10:59:09.097Z,16.55
2018-05-12T11:00:09.129Z,16.16
2018-05-12T11:01:09.209Z,16.35
2018-05-12T11:02:09.195Z,16.64
2018-05-12T11:03:08.977Z,16.35
2018-05-12T11:04:09.260Z,16.46
2018-05-12T11:05:09.294Z,16.35
2018-05-12T11:06:09.339Z,16.46
2018-05-12T11:07:09.111Z,15.78
2018-05-12T11:08:09.396Z,15.58
2018-05-12T11:09:09.431Z,16.47
2018-05-12T11:10:09.216Z,15.78
2018-05-12T11:11:09.502Z,15.48
2018-05-12T11:12:09.550Z,15.29
2018-05-12T11:13:09.324Z,14.89
2018-05-12T11:14:09.709Z,14.69
2018-05-12T11:15:09.395Z,13.91
2018-05-12T11:16:10.109Z,13.42
2018-05-12T11:17:09.721Z,13.62
2018-05-12T11:18:09.755Z,14.42
2018-05-12T11:19:09.790Z,13.83
2018-05-12T11:20:09.856Z,13.73
2018-05-12T11:21:09.604Z,13.72
2018-05-12T11:22:09.895Z,13.63
2018-05-12T11:23:09.934Z,13.13
2018-05-12T11:24:09.966Z,12.95
2018-05-12T11:25:10.003Z,12.85
2018-05-12T11:26:10.135Z,12.96
2018-05-12T11:27:10.078Z,12.47
2018-05-12T11:28:10.109Z,11.98
2018-05-12T11:29:10.140Z,11.98
2018-05-12T11:30:10.169Z,11.99
2018-05-12T11:31:10.013Z,11.4
2018-05-12T11:32:10.030Z,11.3
2018-05-12T11:33:10.287Z,11.3
2018-05-12T11:34:10.323Z,10.61
2018-05-12T11:35:10.358Z,10.42
2018-05-12T11:36:10.395Z,10.02
2018-05-12T11:37:10.432Z,10.52
2018-05-12T11:38:10.474Z,9.33
2018-05-12T11:39:10.506Z,9.63
2018-05-12T11:40:10.558Z,10.42
2018-05-12T11:41:10.576Z,10.01
2018-05-12T11:42:10.614Z,9.32
2018-05-12T11:43:10.655Z,9.52
2018-05-12T11:44:10.680Z,9.12
2018-05-12T11:45:10.465Z,8.44
2018-05-12T11:46:10.809Z,8.44
2018-05-12T11:47:10.798Z,8.94
2018-05-12T11:48:10.576Z,8.35
2018-05-12T11:49:10.867Z,8.55
2018-05-12T11:50:11.042Z,8.45
2018-05-12T11:51:10.949Z,8.15
2018-05-12T11:52:10.980Z,8.25
2018-05-12T11:53:11.017Z,8.15
2018-05-12T11:54:11.161Z,8.26
2018-05-12T11:55:11.091Z,8.06
2018-05-12T11:56:11.126Z,8.46
2018-05-12T11:57:10.909Z,8.36
2018-05-12T11:58:11.211Z,8.95
2018-05-12T11:59:11.238Z,8.35
2018-05-12T12:00:11.278Z,8.35
2018-05-12T12:01:11.107Z,8.95
2018-05-12T12:02:11.349Z,8.35
2018-05-12T12:03:11.378Z,8.36
2018-05-12T12:04:11.424Z,8.26
2018-05-12T12:05:11.458Z,7.87
2018-05-12T12:06:11.515Z,7.77
2018-05-12T12:07:11.530Z,7.78
2018-05-12T12:08:11.571Z,7.98
2018-05-12T12:09:11.698Z,7.78
2018-05-12T12:10:11.645Z,8.17
2018-05-12T12:11:11.430Z,7.87
2018-05-12T12:12:11.467Z,7.68
2018-05-12T12:13:11.758Z,7.39
2018-05-12T12:14:11.544Z,7.58
2018-05-12T12:15:11.835Z,7.28
2018-05-12T12:16:11.924Z,7.48
2018-05-12T12:17:11.911Z,7.48
2018-05-12T12:18:11.950Z,7.89
2018-05-12T12:19:11.991Z,7.68
2018-05-12T12:20:12.025Z,7.79
2018-05-12T12:21:12.058Z,7.99
2018-05-12T12:22:12.102Z,7.58
2018-05-12T12:23:11.882Z,7.58
2018-05-12T12:24:12.165Z,7.88
2018-05-12T12:25:12.209Z,8.07
2018-05-12T12:26:11.997Z,7.97
2018-05-12T12:27:12.496Z,8.47
2018-05-12T12:28:12.327Z,8.87
2018-05-12T12:29:12.367Z,8.27
2018-05-12T12:30:12.408Z,7.78
2018-05-12T12:31:12.491Z,8.07
2018-05-12T12:32:12.481Z,7.78
2018-05-12T12:33:12.581Z,7.59
2018-05-12T12:34:12.556Z,7.2
2018-05-12T12:35:12.591Z,7.1
2018-05-12T12:36:12.627Z,7.4
2018-05-12T12:37:12.671Z,7.4
2018-05-12T12:38:12.727Z,7.4
2018-05-12T12:39:12.745Z,7.4
2018-05-12T12:40:12.789Z,7.59
2018-05-12T12:41:12.839Z,7.59
2018-05-12T12:42:12.857Z,7.68
2018-05-12T12:43:12.894Z,7.59
2018-05-12T12:44:12.737Z,7.59
2018-05-12T12:45:12.989Z,7.48
2018-05-12T12:46:13.056Z,7.29
2018-05-12T12:47:13.050Z,7
2018-05-12T12:48:12.870Z,6.9
2018-05-12T12:49:13.135Z,7.39
2018-05-12T12:50:13.163Z,7.49
2018-05-12T12:51:13.209Z,7.39
2018-05-12T12:52:12.992Z,7
2018-05-12T12:53:13.306Z,6.61
2018-05-12T12:54:13.069Z,6.81
2018-05-12T12:55:13.360Z,7.01
2018-05-12T12:56:13.399Z,7.31
2018-05-12T12:57:13.440Z,7.4
2018-05-12T12:58:13.543Z,7.2
2018-05-12T12:59:13.517Z,6.41
2018-05-12T13:00:13.303Z,6.41